sensor_id;sensor_type;location;lat;lon;timestamp;P1;durP1;ratioP1;P2;durP2;ratioP2
67556;SDS011;54387;53.526;49.300;2022-09-24T00:01:16;5.68;;;1.60;;
67556;SDS011;54387;53.526;49.300;2022-09-24T00:03:48;6.10;;;1.92;;
67556;SDS011;54387;53.526;49.300;2022-09-24T00:06:19;9.60;;;2.15;;
67556;SDS011;54387;53.526;49.300;2022-09-24T00:08:46;4.82;;;1.80;;
67556;SDS011;54387;53.526;49.300;2022-09-24T00:11:15;6.32;;;1.88;;
67556;SDS011;54387;53.526;49.300;2022-09-24T00:13:42;7.10;;;2.10;;
67556;SDS011;54387;53.526;49.300;2022-09-24T00:16:10;4.93;;;1.40;;
67556;SDS011;54387;53.526;49.300;2022-09-24T00:18:38;5.60;;;1.70;;
67556;SDS011;54387;53.526;49.300;2022-09-24T00:21:12;5.88;;;1.50;;
67556;SDS011;54387;53.526;49.300;2022-09-24T00:23:43;6.15;;;1.90;;
67556;SDS011;54387;53.526;49.300;2022-09-24T00:26:10;3.50;;;1.60;;
67556;SDS011;54387;53.526;49.300;2022-09-24T00:28:56;6.68;;;1.60;;
67556;SDS011;54387;53.526;49.300;2022-09-24T00:31:23;3.80;;;1.58;;
67556;SDS011;54387;53.526;49.300;2022-09-24T00:33:50;6.63;;;1.70;;
67556;SDS011;54387;53.526;49.300;2022-09-24T00:36:17;5.22;;;1.92;;
67556;SDS011;54387;53.526;49.300;2022-09-24T00:38:47;4.22;;;1.80;;
67556;SDS011;54387;53.526;49.300;2022-09-24T00:41:15;7.68;;;2.60;;
67556;SDS011;54387;53.526;49.300;2022-09-24T00:43:44;6.80;;;1.92;;
67556;SDS011;54387;53.526;49.300;2022-09-24T00:46:30;5.78;;;2.00;;
67556;SDS011;54387;53.526;49.300;2022-09-24T00:49:05;6.45;;;1.67;;
67556;SDS011;54387;53.526;49.300;2022-09-24T00:51:37;5.05;;;1.80;;
67556;SDS011;54387;53.526;49.300;2022-09-24T00:54:07;3.90;;;1.58;;
67556;SDS011;54387;53.526;49.300;2022-09-24T00:56:35;5.07;;;1.90;;
67556;SDS011;54387;53.526;49.300;2022-09-24T00:59:04;8.15;;;2.40;;
67556;SDS011;54387;53.526;49.300;2022-09-24T01:01:32;6.30;;;1.90;;
67556;SDS011;54387;53.526;49.300;2022-09-24T01:03:58;5.13;;;1.70;;
67556;SDS011;54387;53.526;49.300;2022-09-24T01:06:25;3.67;;;1.83;;
67556;SDS011;54387;53.526;49.300;2022-09-24T01:08:53;5.93;;;1.90;;
67556;SDS011;54387;53.526;49.300;2022-09-24T01:19:51;3.97;;;1.70;;
67556;SDS011;54387;53.526;49.300;2022-09-24T01:31:37;4.40;;;2.10;;
67556;SDS011;54387;53.526;49.300;2022-09-24T01:34:08;6.35;;;1.80;;
67556;SDS011;54387;53.526;49.300;2022-09-24T01:36:39;4.13;;;2.00;;
67556;SDS011;54387;53.526;49.300;2022-09-24T01:39:06;6.25;;;2.03;;
67556;SDS011;54387;53.526;49.300;2022-09-24T01:41:35;5.50;;;1.80;;
67556;SDS011;54387;53.526;49.300;2022-09-24T01:44:03;8.68;;;2.28;;
67556;SDS011;54387;53.526;49.300;2022-09-24T01:46:32;4.88;;;1.70;;
67556;SDS011;54387;53.526;49.300;2022-09-24T01:49:02;7.88;;;1.95;;
67556;SDS011;54387;53.526;49.300;2022-09-24T01:51:42;7.05;;;2.30;;
67556;SDS011;54387;53.526;49.300;2022-09-24T01:54:23;5.70;;;1.98;;
67556;SDS011;54387;53.526;49.300;2022-09-24T01:57:15;5.05;;;1.80;;
67556;SDS011;54387;53.526;49.300;2022-09-24T01:59:55;3.92;;;1.85;;
67556;SDS011;54387;53.526;49.300;2022-09-24T02:02:38;3.80;;;1.90;;
67556;SDS011;54387;53.526;49.300;2022-09-24T02:05:23;5.28;;;2.03;;
67556;SDS011;54387;53.526;49.300;2022-09-24T02:10:48;11.88;;;2.17;;
67556;SDS011;54387;53.526;49.300;2022-09-24T02:13:24;5.88;;;2.00;;
67556;SDS011;54387;53.526;49.300;2022-09-24T02:15:55;8.80;;;1.65;;
67556;SDS011;54387;53.526;49.300;2022-09-24T02:18:25;8.00;;;2.00;;
67556;SDS011;54387;53.526;49.300;2022-09-24T02:20:58;6.47;;;1.85;;
67556;SDS011;54387;53.526;49.300;2022-09-24T02:23:27;6.82;;;2.00;;
67556;SDS011;54387;53.526;49.300;2022-09-24T02:25:57;9.13;;;2.00;;
67556;SDS011;54387;53.526;49.300;2022-09-24T02:28:27;4.75;;;2.10;;
67556;SDS011;54387;53.526;49.300;2022-09-24T02:31:17;7.38;;;1.85;;
67556;SDS011;54387;53.526;49.300;2022-09-24T02:33:53;6.32;;;2.08;;
67556;SDS011;54387;53.526;49.300;2022-09-24T02:36:45;6.55;;;2.17;;
67556;SDS011;54387;53.526;49.300;2022-09-24T02:39:14;5.57;;;2.00;;
67556;SDS011;54387;53.526;49.300;2022-09-24T02:41:42;6.43;;;1.98;;
67556;SDS011;54387;53.526;49.300;2022-09-24T02:44:15;6.47;;;2.00;;
67556;SDS011;54387;53.526;49.300;2022-09-24T02:46:45;6.00;;;1.95;;
67556;SDS011;54387;53.526;49.300;2022-09-24T02:49:13;3.72;;;1.70;;
67556;SDS011;54387;53.526;49.300;2022-09-24T02:51:40;7.20;;;2.15;;
67556;SDS011;54387;53.526;49.300;2022-09-24T02:54:07;5.55;;;2.17;;
67556;SDS011;54387;53.526;49.300;2022-09-24T02:56:34;5.75;;;2.05;;
67556;SDS011;54387;53.526;49.300;2022-09-24T02:59:00;9.02;;;2.63;;
67556;SDS011;54387;53.526;49.300;2022-09-24T03:01:28;6.25;;;2.17;;
67556;SDS011;54387;53.526;49.300;2022-09-24T03:03:55;9.65;;;2.30;;
67556;SDS011;54387;53.526;49.300;2022-09-24T03:06:21;8.10;;;2.58;;
67556;SDS011;54387;53.526;49.300;2022-09-24T03:08:49;5.82;;;2.58;;
67556;SDS011;54387;53.526;49.300;2022-09-24T03:11:18;5.85;;;2.38;;
67556;SDS011;54387;53.526;49.300;2022-09-24T03:13:46;5.13;;;2.50;;
67556;SDS011;54387;53.526;49.300;2022-09-24T03:16:12;6.63;;;3.08;;
67556;SDS011;54387;53.526;49.300;2022-09-24T03:18:39;7.38;;;2.50;;
67556;SDS011;54387;53.526;49.300;2022-09-24T03:21:06;9.07;;;2.80;;
67556;SDS011;54387;53.526;49.300;2022-09-24T03:23:35;10.10;;;3.00;;
67556;SDS011;54387;53.526;49.300;2022-09-24T03:26:01;6.35;;;2.78;;
67556;SDS011;54387;53.526;49.300;2022-09-24T03:28:28;5.72;;;3.10;;
67556;SDS011;54387;53.526;49.300;2022-09-24T03:30:54;6.95;;;3.33;;
67556;SDS011;54387;53.526;49.300;2022-09-24T03:38:35;5.95;;;3.97;;
67556;SDS011;54387;53.526;49.300;2022-09-24T03:41:03;9.85;;;4.10;;
67556;SDS011;54387;53.526;49.300;2022-09-24T03:43:30;7.40;;;4.25;;
67556;SDS011;54387;53.526;49.300;2022-09-24T03:45:57;8.43;;;4.30;;
67556;SDS011;54387;53.526;49.300;2022-09-24T03:48:24;7.15;;;4.30;;
67556;SDS011;54387;53.526;49.300;2022-09-24T03:50:52;8.23;;;4.88;;
67556;SDS011;54387;53.526;49.300;2022-09-24T03:53:19;6.68;;;4.63;;
67556;SDS011;54387;53.526;49.300;2022-09-24T03:55:52;9.25;;;4.78;;
67556;SDS011;54387;53.526;49.300;2022-09-24T03:58:20;9.60;;;4.97;;
67556;SDS011;54387;53.526;49.300;2022-09-24T04:00:46;9.43;;;4.88;;
67556;SDS011;54387;53.526;49.300;2022-09-24T04:03:12;8.15;;;5.50;;
67556;SDS011;54387;53.526;49.300;2022-09-24T04:05:38;10.13;;;5.53;;
67556;SDS011;54387;53.526;49.300;2022-09-24T04:08:04;13.18;;;5.25;;
67556;SDS011;54387;53.526;49.300;2022-09-24T04:10:31;9.48;;;5.65;;
67556;SDS011;54387;53.526;49.300;2022-09-24T04:12:57;10.93;;;5.95;;
67556;SDS011;54387;53.526;49.300;2022-09-24T04:15:23;10.30;;;6.07;;
67556;SDS011;54387;53.526;49.300;2022-09-24T04:17:50;12.25;;;6.45;;
67556;SDS011;54387;53.526;49.300;2022-09-24T04:20:18;20.83;;;6.80;;
67556;SDS011;54387;53.526;49.300;2022-09-24T04:22:48;12.02;;;6.60;;
67556;SDS011;54387;53.526;49.300;2022-09-24T04:25:15;11.55;;;6.13;;
67556;SDS011;54387;53.526;49.300;2022-09-24T04:27:43;12.93;;;6.97;;
67556;SDS011;54387;53.526;49.300;2022-09-24T04:30:10;14.15;;;7.13;;
67556;SDS011;54387;53.526;49.300;2022-09-24T04:32:38;11.80;;;6.43;;
67556;SDS011;54387;53.526;49.300;2022-09-24T04:35:05;12.75;;;6.60;;
67556;SDS011;54387;53.526;49.300;2022-09-24T04:37:32;10.60;;;7.55;;
67556;SDS011;54387;53.526;49.300;2022-09-24T04:39:58;13.70;;;7.38;;
67556;SDS011;54387;53.526;49.300;2022-09-24T04:42:24;10.70;;;7.30;;
67556;SDS011;54387;53.526;49.300;2022-09-24T04:44:51;12.30;;;7.32;;
67556;SDS011;54387;53.526;49.300;2022-09-24T04:47:17;18.40;;;7.70;;
67556;SDS011;54387;53.526;49.300;2022-09-24T04:49:43;12.25;;;8.05;;
67556;SDS011;54387;53.526;49.300;2022-09-24T04:52:13;12.30;;;8.48;;
67556;SDS011;54387;53.526;49.300;2022-09-24T04:54:40;15.68;;;8.95;;
67556;SDS011;54387;53.526;49.300;2022-09-24T04:57:14;11.50;;;7.55;;
67556;SDS011;54387;53.526;49.300;2022-09-24T04:59:41;13.32;;;8.77;;
67556;SDS011;54387;53.526;49.300;2022-09-24T05:02:08;11.55;;;9.15;;
67556;SDS011;54387;53.526;49.300;2022-09-24T05:04:35;16.13;;;10.18;;
67556;SDS011;54387;53.526;49.300;2022-09-24T05:07:02;15.20;;;10.25;;
67556;SDS011;54387;53.526;49.300;2022-09-24T05:09:29;16.20;;;10.80;;
67556;SDS011;54387;53.526;49.300;2022-09-24T05:11:58;17.08;;;10.57;;
67556;SDS011;54387;53.526;49.300;2022-09-24T05:14:24;17.20;;;10.57;;
67556;SDS011;54387;53.526;49.300;2022-09-24T05:16:51;17.67;;;9.88;;
67556;SDS011;54387;53.526;49.300;2022-09-24T05:19:17;14.40;;;10.75;;
67556;SDS011;54387;53.526;49.300;2022-09-24T05:21:43;17.85;;;11.60;;
67556;SDS011;54387;53.526;49.300;2022-09-24T05:24:10;15.40;;;10.63;;
67556;SDS011;54387;53.526;49.300;2022-09-24T05:26:37;20.77;;;11.75;;
67556;SDS011;54387;53.526;49.300;2022-09-24T05:29:22;15.82;;;10.80;;
67556;SDS011;54387;53.526;49.300;2022-09-24T05:31:48;14.52;;;10.63;;
67556;SDS011;54387;53.526;49.300;2022-09-24T05:34:14;17.15;;;11.40;;
67556;SDS011;54387;53.526;49.300;2022-09-24T05:36:41;15.88;;;9.48;;
67556;SDS011;54387;53.526;49.300;2022-09-24T05:39:09;16.48;;;9.85;;
67556;SDS011;54387;53.526;49.300;2022-09-24T05:41:36;14.60;;;11.27;;
67556;SDS011;54387;53.526;49.300;2022-09-24T05:44:04;15.07;;;11.75;;
67556;SDS011;54387;53.526;49.300;2022-09-24T05:46:30;16.40;;;11.20;;
67556;SDS011;54387;53.526;49.300;2022-09-24T05:48:58;17.42;;;11.77;;
67556;SDS011;54387;53.526;49.300;2022-09-24T05:51:24;17.50;;;11.50;;
67556;SDS011;54387;53.526;49.300;2022-09-24T05:53:50;17.05;;;11.60;;
67556;SDS011;54387;53.526;49.300;2022-09-24T05:56:17;15.23;;;10.35;;
67556;SDS011;54387;53.526;49.300;2022-09-24T05:58:43;12.65;;;9.43;;
67556;SDS011;54387;53.526;49.300;2022-09-24T06:01:12;16.08;;;11.60;;
67556;SDS011;54387;53.526;49.300;2022-09-24T06:03:38;14.40;;;11.02;;
67556;SDS011;54387;53.526;49.300;2022-09-24T06:06:05;16.02;;;10.85;;
67556;SDS011;54387;53.526;49.300;2022-09-24T06:08:31;15.02;;;9.70;;
67556;SDS011;54387;53.526;49.300;2022-09-24T06:11:01;12.45;;;8.88;;
67556;SDS011;54387;53.526;49.300;2022-09-24T06:13:29;13.18;;;9.18;;
67556;SDS011;54387;53.526;49.300;2022-09-24T06:16:00;13.68;;;8.70;;
67556;SDS011;54387;53.526;49.300;2022-09-24T06:18:27;12.15;;;8.38;;
67556;SDS011;54387;53.526;49.300;2022-09-24T06:20:53;10.73;;;8.45;;
67556;SDS011;54387;53.526;49.300;2022-09-24T06:23:19;10.80;;;8.48;;
67556;SDS011;54387;53.526;49.300;2022-09-24T06:25:49;12.77;;;8.27;;
67556;SDS011;54387;53.526;49.300;2022-09-24T06:28:18;9.95;;;7.97;;
67556;SDS011;54387;53.526;49.300;2022-09-24T06:30:44;12.35;;;8.40;;
67556;SDS011;54387;53.526;49.300;2022-09-24T06:33:11;9.98;;;7.68;;
67556;SDS011;54387;53.526;49.300;2022-09-24T06:35:41;10.35;;;6.60;;
67556;SDS011;54387;53.526;49.300;2022-09-24T06:38:13;10.07;;;7.30;;
67556;SDS011;54387;53.526;49.300;2022-09-24T06:40:41;10.93;;;7.57;;
67556;SDS011;54387;53.526;49.300;2022-09-24T06:43:10;7.15;;;4.90;;
67556;SDS011;54387;53.526;49.300;2022-09-24T06:45:37;8.95;;;5.18;;
67556;SDS011;54387;53.526;49.300;2022-09-24T06:48:06;6.90;;;4.75;;
67556;SDS011;54387;53.526;49.300;2022-09-24T06:50:33;6.85;;;3.92;;
67556;SDS011;54387;53.526;49.300;2022-09-24T06:53:03;6.45;;;4.43;;
67556;SDS011;54387;53.526;49.300;2022-09-24T06:55:30;5.00;;;4.30;;
67556;SDS011;54387;53.526;49.300;2022-09-24T06:58:02;7.22;;;4.25;;
67556;SDS011;54387;53.526;49.300;2022-09-24T07:00:33;8.13;;;4.22;;
67556;SDS011;54387;53.526;49.300;2022-09-24T07:03:00;7.40;;;4.03;;
67556;SDS011;54387;53.526;49.300;2022-09-24T07:05:26;6.85;;;3.58;;
67556;SDS011;54387;53.526;49.300;2022-09-24T07:07:53;5.03;;;2.97;;
67556;SDS011;54387;53.526;49.300;2022-09-24T07:10:19;5.97;;;3.35;;
67556;SDS011;54387;53.526;49.300;2022-09-24T07:12:45;3.97;;;2.70;;
67556;SDS011;54387;53.526;49.300;2022-09-24T07:15:11;5.68;;;2.83;;
67556;SDS011;54387;53.526;49.300;2022-09-24T07:17:38;6.03;;;3.03;;
67556;SDS011;54387;53.526;49.300;2022-09-24T07:20:04;4.03;;;3.28;;
67556;SDS011;54387;53.526;49.300;2022-09-24T07:22:30;3.03;;;2.42;;
67556;SDS011;54387;53.526;49.300;2022-09-24T07:24:57;4.70;;;2.78;;
67556;SDS011;54387;53.526;49.300;2022-09-24T07:27:23;3.53;;;2.05;;
67556;SDS011;54387;53.526;49.300;2022-09-24T07:29:49;5.65;;;2.30;;
67556;SDS011;54387;53.526;49.300;2022-09-24T07:32:16;5.15;;;2.00;;
67556;SDS011;54387;53.526;49.300;2022-09-24T07:34:42;3.42;;;1.67;;
67556;SDS011;54387;53.526;49.300;2022-09-24T07:37:08;2.40;;;1.95;;
67556;SDS011;54387;53.526;49.300;2022-09-24T07:39:35;4.40;;;1.92;;
67556;SDS011;54387;53.526;49.300;2022-09-24T07:42:01;4.47;;;2.03;;
67556;SDS011;54387;53.526;49.300;2022-09-24T07:44:27;2.45;;;1.58;;
67556;SDS011;54387;53.526;49.300;2022-09-24T07:46:54;3.65;;;2.05;;
67556;SDS011;54387;53.526;49.300;2022-09-24T07:49:20;2.05;;;1.80;;
67556;SDS011;54387;53.526;49.300;2022-09-24T07:51:47;3.40;;;1.60;;
67556;SDS011;54387;53.526;49.300;2022-09-24T07:54:14;2.45;;;1.55;;
67556;SDS011;54387;53.526;49.300;2022-09-24T07:56:41;4.88;;;2.20;;
67556;SDS011;54387;53.526;49.300;2022-09-24T07:59:07;7.57;;;1.88;;
67556;SDS011;54387;53.526;49.300;2022-09-24T08:01:35;3.45;;;1.67;;
67556;SDS011;54387;53.526;49.300;2022-09-24T08:04:02;3.72;;;1.52;;
67556;SDS011;54387;53.526;49.300;2022-09-24T08:06:29;2.88;;;1.40;;
67556;SDS011;54387;53.526;49.300;2022-09-24T08:08:58;2.95;;;1.40;;
67556;SDS011;54387;53.526;49.300;2022-09-24T08:11:25;5.10;;;1.85;;
67556;SDS011;54387;53.526;49.300;2022-09-24T08:13:51;2.42;;;1.60;;
67556;SDS011;54387;53.526;49.300;2022-09-24T08:16:17;2.13;;;1.30;;
67556;SDS011;54387;53.526;49.300;2022-09-24T08:18:45;4.72;;;1.40;;
67556;SDS011;54387;53.526;49.300;2022-09-24T08:21:12;2.65;;;1.13;;
67556;SDS011;54387;53.526;49.300;2022-09-24T08:23:42;1.58;;;1.10;;
67556;SDS011;54387;53.526;49.300;2022-09-24T08:26:09;6.18;;;1.20;;
67556;SDS011;54387;53.526;49.300;2022-09-24T08:28:36;5.47;;;1.67;;
67556;SDS011;54387;53.526;49.300;2022-09-24T08:31:05;3.55;;;1.50;;
67556;SDS011;54387;53.526;49.300;2022-09-24T08:33:36;5.28;;;1.55;;
67556;SDS011;54387;53.526;49.300;2022-09-24T08:36:04;3.65;;;1.10;;
67556;SDS011;54387;53.526;49.300;2022-09-24T08:38:32;1.40;;;0.90;;
67556;SDS011;54387;53.526;49.300;2022-09-24T08:46:41;2.90;;;0.90;;
67556;SDS011;54387;53.526;49.300;2022-09-24T08:49:47;1.90;;;0.77;;
67556;SDS011;54387;53.526;49.300;2022-09-24T08:55:21;2.15;;;0.60;;
67556;SDS011;54387;53.526;49.300;2022-09-24T08:58:13;2.00;;;0.70;;
67556;SDS011;54387;53.526;49.300;2022-09-24T09:01:20;3.95;;;0.60;;
67556;SDS011;54387;53.526;49.300;2022-09-24T09:04:20;1.77;;;0.60;;
67556;SDS011;54387;53.526;49.300;2022-09-24T09:07:19;2.92;;;0.70;;
67556;SDS011;54387;53.526;49.300;2022-09-24T09:10:12;0.60;;;0.60;;
67556;SDS011;54387;53.526;49.300;2022-09-24T09:12:47;2.28;;;0.50;;
67556;SDS011;54387;53.526;49.300;2022-09-24T09:15:20;2.65;;;0.70;;
67556;SDS011;54387;53.526;49.300;2022-09-24T09:18:06;2.28;;;0.95;;
67556;SDS011;54387;53.526;49.300;2022-09-24T09:20:43;2.97;;;0.70;;
67556;SDS011;54387;53.526;49.300;2022-09-24T09:23:33;1.35;;;0.60;;
67556;SDS011;54387;53.526;49.300;2022-09-24T09:25:59;2.15;;;0.60;;
67556;SDS011;54387;53.526;49.300;2022-09-24T09:28:26;3.15;;;0.60;;
67556;SDS011;54387;53.526;49.300;2022-09-24T09:42:29;2.15;;;0.90;;
67556;SDS011;54387;53.526;49.300;2022-09-24T09:44:58;1.65;;;0.77;;
67556;SDS011;54387;53.526;49.300;2022-09-24T09:47:35;1.17;;;0.40;;
67556;SDS011;54387;53.526;49.300;2022-09-24T09:50:14;3.65;;;0.63;;
67556;SDS011;54387;53.526;49.300;2022-09-24T09:52:45;0.77;;;0.60;;
67556;SDS011;54387;53.526;49.300;2022-09-24T09:55:28;2.92;;;0.70;;
67556;SDS011;54387;53.526;49.300;2022-09-24T09:58:17;3.95;;;0.77;;
67556;SDS011;54387;53.526;49.300;2022-09-24T10:00:48;1.85;;;0.70;;
67556;SDS011;54387;53.526;49.300;2022-09-24T10:03:20;2.05;;;0.63;;
67556;SDS011;54387;53.526;49.300;2022-09-24T10:06:00;3.33;;;0.70;;
67556;SDS011;54387;53.526;49.300;2022-09-24T10:08:28;0.77;;;0.73;;
67556;SDS011;54387;53.526;49.300;2022-09-24T10:10:55;0.63;;;0.60;;
67556;SDS011;54387;53.526;49.300;2022-09-24T10:13:23;1.10;;;0.65;;
67556;SDS011;54387;53.526;49.300;2022-09-24T10:15:51;3.50;;;1.10;;
67556;SDS011;54387;53.526;49.300;2022-09-24T10:18:26;1.55;;;0.85;;
67556;SDS011;54387;53.526;49.300;2022-09-24T10:21:01;1.13;;;0.70;;
67556;SDS011;54387;53.526;49.300;2022-09-24T10:23:43;1.52;;;0.80;;
67556;SDS011;54387;53.526;49.300;2022-09-24T10:26:14;1.05;;;0.80;;
67556;SDS011;54387;53.526;49.300;2022-09-24T10:28:44;1.42;;;0.73;;
67556;SDS011;54387;53.526;49.300;2022-09-24T10:31:31;4.25;;;0.75;;
67556;SDS011;54387;53.526;49.300;2022-09-24T10:34:01;3.67;;;0.75;;
67556;SDS011;54387;53.526;49.300;2022-09-24T10:36:49;0.95;;;0.70;;
67556;SDS011;54387;53.526;49.300;2022-09-24T10:39:17;1.27;;;0.82;;
67556;SDS011;54387;53.526;49.300;2022-09-24T10:41:46;1.42;;;0.80;;
67556;SDS011;54387;53.526;49.300;2022-09-24T10:44:18;1.77;;;0.73;;
67556;SDS011;54387;53.526;49.300;2022-09-24T10:57:27;2.53;;;1.23;;
67556;SDS011;54387;53.526;49.300;2022-09-24T11:05:21;3.47;;;1.40;;
67556;SDS011;54387;53.526;49.300;2022-09-24T11:07:57;2.45;;;1.20;;
67556;SDS011;54387;53.526;49.300;2022-09-24T11:19:06;2.83;;;1.17;;
67556;SDS011;54387;53.526;49.300;2022-09-24T11:22:05;4.80;;;1.00;;
67556;SDS011;54387;53.526;49.300;2022-09-24T11:24:57;1.58;;;1.17;;
67556;SDS011;54387;53.526;49.300;2022-09-24T11:46:55;2.15;;;1.30;;
67556;SDS011;54387;53.526;49.300;2022-09-24T11:49:27;2.35;;;1.00;;
67556;SDS011;54387;53.526;49.300;2022-09-24T11:52:11;1.10;;;0.88;;
67556;SDS011;54387;53.526;49.300;2022-09-24T11:57:22;1.10;;;0.93;;
67556;SDS011;54387;53.526;49.300;2022-09-24T11:59:53;1.45;;;1.05;;
67556;SDS011;54387;53.526;49.300;2022-09-24T12:05:30;5.00;;;1.70;;
67556;SDS011;54387;53.526;49.300;2022-09-24T12:08:03;2.40;;;1.27;;
67556;SDS011;54387;53.526;49.300;2022-09-24T12:10:51;3.53;;;1.65;;
67556;SDS011;54387;53.526;49.300;2022-09-24T12:13:20;4.30;;;1.60;;
67556;SDS011;54387;53.526;49.300;2022-09-24T12:16:01;3.55;;;1.50;;
67556;SDS011;54387;53.526;49.300;2022-09-24T12:18:40;3.00;;;1.48;;
67556;SDS011;54387;53.526;49.300;2022-09-24T12:21:16;3.20;;;1.70;;
67556;SDS011;54387;53.526;49.300;2022-09-24T12:26:56;14.32;;;3.10;;
67556;SDS011;54387;53.526;49.300;2022-09-24T12:32:19;1.92;;;1.40;;
67556;SDS011;54387;53.526;49.300;2022-09-24T12:38:02;1.67;;;1.50;;
67556;SDS011;54387;53.526;49.300;2022-09-24T12:46:17;3.45;;;1.60;;
67556;SDS011;54387;53.526;49.300;2022-09-24T12:48:47;4.03;;;2.00;;
67556;SDS011;54387;53.526;49.300;2022-09-24T12:51:15;2.80;;;1.52;;
67556;SDS011;54387;53.526;49.300;2022-09-24T12:53:57;2.22;;;1.50;;
67556;SDS011;54387;53.526;49.300;2022-09-24T12:56:29;3.80;;;1.40;;
67556;SDS011;54387;53.526;49.300;2022-09-24T12:58:56;3.05;;;1.50;;
67556;SDS011;54387;53.526;49.300;2022-09-24T13:06:40;3.78;;;1.80;;
67556;SDS011;54387;53.526;49.300;2022-09-24T13:14:40;3.63;;;1.52;;
67556;SDS011;54387;53.526;49.300;2022-09-24T13:17:13;3.35;;;1.58;;
67556;SDS011;54387;53.526;49.300;2022-09-24T13:19:41;1.73;;;1.35;;
67556;SDS011;54387;53.526;49.300;2022-09-24T13:22:28;1.83;;;1.40;;
67556;SDS011;54387;53.526;49.300;2022-09-24T13:25:19;4.60;;;1.58;;
67556;SDS011;54387;53.526;49.300;2022-09-24T13:27:57;2.67;;;1.30;;
67556;SDS011;54387;53.526;49.300;2022-09-24T13:35:59;3.35;;;1.45;;
67556;SDS011;54387;53.526;49.300;2022-09-24T13:39:00;2.65;;;1.25;;
67556;SDS011;54387;53.526;49.300;2022-09-24T13:41:52;2.15;;;1.42;;
67556;SDS011;54387;53.526;49.300;2022-09-24T13:44:41;2.58;;;1.50;;
67556;SDS011;54387;53.526;49.300;2022-09-24T13:52:42;3.80;;;1.90;;
67556;SDS011;54387;53.526;49.300;2022-09-24T13:57:48;3.13;;;1.70;;
67556;SDS011;54387;53.526;49.300;2022-09-24T14:00:18;2.65;;;1.75;;
67556;SDS011;54387;53.526;49.300;2022-09-24T14:05:24;3.25;;;1.70;;
67556;SDS011;54387;53.526;49.300;2022-09-24T14:08:06;2.88;;;1.30;;
67556;SDS011;54387;53.526;49.300;2022-09-24T14:10:38;3.47;;;1.67;;
67556;SDS011;54387;53.526;49.300;2022-09-24T14:15:34;1.88;;;1.40;;
67556;SDS011;54387;53.526;49.300;2022-09-24T14:18:01;3.60;;;1.63;;
67556;SDS011;54387;53.526;49.300;2022-09-24T14:20:32;2.55;;;1.67;;
67556;SDS011;54387;53.526;49.300;2022-09-24T14:23:00;5.15;;;1.63;;
67556;SDS011;54387;53.526;49.300;2022-09-24T14:25:29;2.97;;;1.70;;
67556;SDS011;54387;53.526;49.300;2022-09-24T14:27:58;4.63;;;1.55;;
67556;SDS011;54387;53.526;49.300;2022-09-24T14:30:27;1.55;;;1.30;;
67556;SDS011;54387;53.526;49.300;2022-09-24T14:32:58;3.33;;;1.40;;
67556;SDS011;54387;53.526;49.300;2022-09-24T14:35:30;2.05;;;1.55;;
67556;SDS011;54387;53.526;49.300;2022-09-24T14:40:47;3.22;;;1.40;;
67556;SDS011;54387;53.526;49.300;2022-09-24T14:43:20;2.75;;;1.77;;
67556;SDS011;54387;53.526;49.300;2022-09-24T14:46:05;2.63;;;1.52;;
67556;SDS011;54387;53.526;49.300;2022-09-24T14:48:45;2.83;;;1.65;;
67556;SDS011;54387;53.526;49.300;2022-09-24T14:51:27;5.07;;;1.40;;
67556;SDS011;54387;53.526;49.300;2022-09-24T14:56:30;2.13;;;1.40;;
67556;SDS011;54387;53.526;49.300;2022-09-24T14:58:58;3.25;;;1.25;;
67556;SDS011;54387;53.526;49.300;2022-09-24T15:01:33;3.05;;;1.58;;
67556;SDS011;54387;53.526;49.300;2022-09-24T15:04:01;4.43;;;1.67;;
67556;SDS011;54387;53.526;49.300;2022-09-24T15:06:34;2.45;;;1.42;;
67556;SDS011;54387;53.526;49.300;2022-09-24T15:09:03;1.40;;;1.17;;
67556;SDS011;54387;53.526;49.300;2022-09-24T15:11:49;3.22;;;1.60;;
67556;SDS011;54387;53.526;49.300;2022-09-24T15:14:19;9.27;;;1.90;;
67556;SDS011;54387;53.526;49.300;2022-09-24T15:16:52;4.72;;;1.98;;
67556;SDS011;54387;53.526;49.300;2022-09-24T15:19:23;2.80;;;1.73;;
67556;SDS011;54387;53.526;49.300;2022-09-24T15:21:56;3.22;;;2.55;;
67556;SDS011;54387;53.526;49.300;2022-09-24T15:24:23;3.50;;;2.13;;
67556;SDS011;54387;53.526;49.300;2022-09-24T15:27:03;5.30;;;2.42;;
67556;SDS011;54387;53.526;49.300;2022-09-24T15:29:51;3.08;;;2.05;;
67556;SDS011;54387;53.526;49.300;2022-09-24T15:32:19;5.57;;;2.30;;
67556;SDS011;54387;53.526;49.300;2022-09-24T15:34:45;3.65;;;2.08;;
67556;SDS011;54387;53.526;49.300;2022-09-24T15:37:17;2.63;;;1.98;;
67556;SDS011;54387;53.526;49.300;2022-09-24T15:39:45;4.18;;;2.20;;
67556;SDS011;54387;53.526;49.300;2022-09-24T15:42:23;7.15;;;2.60;;
67556;SDS011;54387;53.526;49.300;2022-09-24T15:44:51;4.63;;;2.58;;
67556;SDS011;54387;53.526;49.300;2022-09-24T15:47:19;4.07;;;2.67;;
67556;SDS011;54387;53.526;49.300;2022-09-24T15:49:45;4.30;;;2.65;;
67556;SDS011;54387;53.526;49.300;2022-09-24T15:52:22;3.83;;;2.30;;
67556;SDS011;54387;53.526;49.300;2022-09-24T15:54:56;3.60;;;2.28;;
67556;SDS011;54387;53.526;49.300;2022-09-24T15:57:24;3.38;;;2.35;;
67556;SDS011;54387;53.526;49.300;2022-09-24T15:59:51;4.43;;;2.70;;
67556;SDS011;54387;53.526;49.300;2022-09-24T16:02:25;7.68;;;2.78;;
67556;SDS011;54387;53.526;49.300;2022-09-24T16:04:56;8.07;;;3.10;;
67556;SDS011;54387;53.526;49.300;2022-09-24T16:07:26;4.97;;;3.15;;
67556;SDS011;54387;53.526;49.300;2022-09-24T16:09:52;5.10;;;2.60;;
67556;SDS011;54387;53.526;49.300;2022-09-24T16:12:19;5.60;;;3.03;;
67556;SDS011;54387;53.526;49.300;2022-09-24T16:14:45;4.68;;;2.55;;
67556;SDS011;54387;53.526;49.300;2022-09-24T16:17:12;4.35;;;2.78;;
67556;SDS011;54387;53.526;49.300;2022-09-24T16:19:38;4.78;;;2.30;;
67556;SDS011;54387;53.526;49.300;2022-09-24T16:22:04;4.30;;;2.33;;
67556;SDS011;54387;53.526;49.300;2022-09-24T16:24:31;4.72;;;2.30;;
67556;SDS011;54387;53.526;49.300;2022-09-24T16:26:58;3.60;;;2.63;;
67556;SDS011;54387;53.526;49.300;2022-09-24T16:29:24;4.78;;;2.53;;
67556;SDS011;54387;53.526;49.300;2022-09-24T16:31:51;5.10;;;2.60;;
67556;SDS011;54387;53.526;49.300;2022-09-24T16:34:17;4.18;;;2.58;;
67556;SDS011;54387;53.526;49.300;2022-09-24T16:36:43;4.55;;;2.65;;
67556;SDS011;54387;53.526;49.300;2022-09-24T16:39:10;4.10;;;2.20;;
67556;SDS011;54387;53.526;49.300;2022-09-24T16:41:36;3.47;;;1.90;;
67556;SDS011;54387;53.526;49.300;2022-09-24T16:44:02;2.22;;;1.80;;
67556;SDS011;54387;53.526;49.300;2022-09-24T16:46:29;4.28;;;2.00;;
67556;SDS011;54387;53.526;49.300;2022-09-24T16:48:55;2.45;;;1.83;;
67556;SDS011;54387;53.526;49.300;2022-09-24T16:51:23;5.45;;;2.00;;
67556;SDS011;54387;53.526;49.300;2022-09-24T16:53:53;3.05;;;1.90;;
67556;SDS011;54387;53.526;49.300;2022-09-24T16:56:20;3.22;;;1.70;;
67556;SDS011;54387;53.526;49.300;2022-09-24T16:58:47;2.50;;;1.77;;
67556;SDS011;54387;53.526;49.300;2022-09-24T17:01:15;3.63;;;2.05;;
67556;SDS011;54387;53.526;49.300;2022-09-24T17:03:42;3.25;;;1.60;;
67556;SDS011;54387;53.526;49.300;2022-09-24T17:06:22;3.03;;;1.80;;
67556;SDS011;54387;53.526;49.300;2022-09-24T17:08:50;4.00;;;2.05;;
67556;SDS011;54387;53.526;49.300;2022-09-24T17:11:36;2.88;;;1.80;;
67556;SDS011;54387;53.526;49.300;2022-09-24T17:14:04;2.72;;;1.98;;
67556;SDS011;54387;53.526;49.300;2022-09-24T17:16:32;2.83;;;1.88;;
67556;SDS011;54387;53.526;49.300;2022-09-24T17:19:06;2.40;;;1.73;;